Time;durP1;ratioP1;P1;durP2;ratioP2;P2;SDS_P1;SDS_P2;PMS_P1;PMS_P2;Temp;Humidity;BMP_temperature;BMP_pressure;BME280_temperature;BME280_humidity;BME280_pressure;Samples;Min_cycle;Max_cycle;Signal;HPM_P1;HPM_P2
2021/10/21 00:01:53;;;;;;;4.07;1.40;;;13.50;99.90;;;12.93;100.00;95963.63;5127463;28;20044;-67
2021/10/21 00:04:20;;;;;;;3.47;1.50;;;13.50;99.90;;;12.96;100.00;95963.41;5095108;28;20044;-68
2021/10/21 00:06:47;;;;;;;4.63;1.80;;;13.50;99.90;;;12.95;100.00;95940.88;5096830;28;20054;-67
2021/10/21 00:09:14;;;;;;;2.00;1.15;;;13.60;99.90;;;13.00;100.00;95944.00;5094968;28;20093;-68
2021/10/21 00:11:42;;;;;;;3.05;1.55;;;13.60;99.90;;;12.98;100.00;95932.84;5085758;28;20137;-67
2021/10/21 00:14:09;;;;;;;2.50;1.30;;;13.70;99.90;;;13.03;100.00;95922.91;5083592;28;21359;-66
2021/10/21 00:16:36;;;;;;;2.00;1.15;;;13.70;99.90;;;13.06;100.00;95903.59;5105324;28;20083;-69
2021/10/21 00:19:05;;;;;;;5.10;1.50;;;13.70;99.90;;;13.11;100.00;95906.66;5099253;28;20051;-67
2021/10/21 00:21:32;;;;;;;6.65;1.50;;;13.80;99.90;;;13.14;100.00;95862.16;5095541;28;20042;-67
2021/10/21 00:23:59;;;;;;;5.03;1.60;;;13.70;99.90;;;13.15;100.00;95832.53;5101057;28;20138;-67
2021/10/21 00:26:26;;;;;;;3.00;1.80;;;13.80;99.90;;;13.29;99.81;95870.53;5079699;28;20457;-68
2021/10/21 00:28:53;;;;;;;2.70;1.50;;;13.90;99.90;;;13.31;99.75;95842.56;5098430;28;20056;-67
2021/10/21 00:31:20;;;;;;;6.45;2.63;;;14.00;99.90;;;13.27;100.00;95817.66;5076295;28;20131;-68
2021/10/21 00:33:47;;;;;;;2.33;1.50;;;13.90;99.90;;;13.33;99.66;95802.41;5086115;28;20045;-68
2021/10/21 00:36:14;;;;;;;3.65;1.55;;;14.00;99.90;;;13.41;98.65;95765.31;5103443;28;20135;-67
2021/10/21 00:38:41;;;;;;;3.60;1.95;;;14.10;99.90;;;13.40;99.25;95779.28;5085338;28;20132;-68
2021/10/21 00:41:08;;;;;;;3.05;1.80;;;14.10;99.90;;;13.38;99.06;95797.63;5090109;28;20416;-67
2021/10/21 00:43:40;;;;;;;5.70;2.15;;;14.20;99.90;;;13.48;98.64;95795.09;5085499;28;20048;-69
2021/10/21 00:46:10;;;;;;;3.58;1.90;;;14.20;99.90;;;13.52;98.19;95793.06;5097594;28;20209;-69
2021/10/21 00:48:39;;;;;;;4.00;1.98;;;14.20;99.90;;;13.53;97.66;95794.72;5101943;28;20067;-69
2021/10/21 00:51:11;;;;;;;6.43;1.73;;;14.20;99.90;;;13.64;96.84;95804.25;5092383;28;20424;-69
2021/10/21 00:53:39;;;;;;;6.72;1.55;;;14.30;99.90;;;13.74;96.00;95842.47;5063375;28;20139;-67
2021/10/21 00:56:13;;;;;;;4.65;1.95;;;14.50;99.90;;;13.66;97.23;95773.66;5074970;28;20118;-67
2021/10/21 00:58:42;;;;;;;3.33;1.90;;;14.50;99.90;;;13.67;96.63;95789.19;5076353;28;20048;-68
2021/10/21 01:01:09;;;;;;;2.90;1.45;;;14.40;99.90;;;13.76;95.69;95804.06;5087108;28;20063;-68
2021/10/21 01:03:36;;;;;;;2.97;1.67;;;14.50;99.90;;;13.74;95.74;95805.97;5091516;28;20489;-68
2021/10/21 01:06:03;;;;;;;5.00;1.60;;;14.60;99.90;;;13.79;95.37;95756.84;5071684;28;20076;-68
2021/10/21 01:08:30;;;;;;;2.83;1.63;;;14.50;99.90;;;13.86;94.47;95732.88;5086046;28;20335;-68
2021/10/21 01:10:58;;;;;;;2.88;1.52;;;14.60;99.90;;;13.80;95.37;95762.91;5090662;28;20504;-69
2021/10/21 01:13:25;;;;;;;2.65;1.48;;;14.60;99.90;;;13.79;95.78;95728.16;5070679;28;20071;-68
2021/10/21 01:16:12;;;;;;;3.78;1.63;;;14.50;99.90;;;13.88;94.58;95731.78;5073948;28;20048;-69
2021/10/21 01:18:41;;;;;;;3.70;2.22;;;14.60;99.90;;;14.00;93.24;95763.81;5053348;28;20056;-69
2021/10/21 01:21:10;;;;;;;2.22;1.10;;;14.70;99.90;;;13.95;93.81;95750.34;5081204;28;20097;-68
2021/10/21 01:23:39;;;;;;;5.60;1.52;;;14.70;99.90;;;13.79;95.39;95750.81;5085446;28;20048;-68
2021/10/21 01:26:13;;;;;;;2.78;1.30;;;14.60;99.90;;;13.94;94.49;95707.78;5072607;28;20044;-69
2021/10/21 01:28:42;;;;;;;3.08;1.27;;;14.60;99.90;;;13.69;97.82;95776.84;5076520;28;20075;-69
2021/10/21 01:31:09;;;;;;;5.40;1.92;;;14.40;99.90;;;13.11;100.00;95839.78;5071388;28;20062;-68
2021/10/21 01:34:17;;;;;;;7.95;2.50;;;14.20;99.90;;;-146.41;100.00;-17772.03;5081133;28;20044;-69
2021/10/21 01:36:50;;;;;;;5.05;1.08;;;13.90;99.90;;;14.22;92.74;62441.03;5070997;28;20040;-67
2021/10/21 01:39:18;;;;;;;4.57;1.10;;;13.30;99.90;;;14.11;99.49;62429.19;5053954;28;20127;-66
2021/10/21 01:41:46;;;;;;;2.28;0.70;;;13.10;99.90;;;13.98;100.00;62415.66;5053081;28;20080;-68
2021/10/21 01:44:13;;;;;;;2.25;0.80;;;12.90;99.90;;;13.86;100.00;62402.50;5087983;28;20138;-67
2021/10/21 01:46:40;;;;;;;1.33;0.57;;;12.80;99.90;;;13.73;100.00;62389.56;5071481;28;20072;-67
2021/10/21 01:49:07;;;;;;;1.42;0.50;;;12.70;99.90;;;13.62;100.00;62377.94;5060254;28;20059;-67
2021/10/21 01:51:34;;;;;;;1.20;0.50;;;12.70;99.90;;;13.54;100.00;62368.88;5070948;28;20128;-67
2021/10/21 01:54:01;;;;;;;1.83;0.65;;;12.80;99.90;;;13.46;100.00;62360.84;5089355;28;20079;-67
2021/10/21 01:56:28;;;;;;;3.20;0.70;;;12.80;99.90;;;13.38;100.00;62352.69;5070782;28;20040;-67
2021/10/21 01:58:55;;;;;;;3.40;0.55;;;12.80;99.90;;;13.30;100.00;62345.25;5087111;28;20105;-68
2021/10/21 02:01:22;;;;;;;4.50;0.50;;;12.80;99.90;;;13.24;100.00;62338.63;5090787;28;20079;-67
2021/10/21 02:03:49;;;;;;;6.28;0.60;;;12.90;99.90;;;13.18;100.00;62332.22;5088818;28;20066;-67
2021/10/21 02:06:17;;;;;;;3.83;0.60;;;12.90;99.90;;;13.12;100.00;62325.91;5074007;28;20118;-67
2021/10/21 02:08:44;;;;;;;2.63;0.50;;;12.90;99.90;;;13.05;100.00;62319.13;5093967;28;20136;-68
2021/10/21 02:11:11;;;;;;;2.60;0.40;;;12.80;99.90;;;13.00;100.00;62313.28;5090622;28;20075;-67
2021/10/21 02:13:38;;;;;;;7.47;0.50;;;12.80;99.90;;;12.93;100.00;62306.41;5080574;28;20052;-68
2021/10/21 02:16:04;;;;;;;3.03;0.50;;;12.80;99.90;;;12.88;100.00;62301.28;5073390;28;20464;-67
2021/10/21 02:18:31;;;;;;;1.88;0.40;;;12.80;99.90;;;12.82;87.32;62294.25;5072256;28;20449;-68
2021/10/21 02:20:59;;;;;;;1.67;0.50;;;12.70;99.90;;;12.76;86.74;62288.47;5071585;28;20533;-67
2021/10/21 02:23:25;;;;;;;2.65;0.50;;;12.70;99.90;;;12.70;84.96;62282.31;5083085;28;20067;-67
2021/10/21 02:25:52;;;;;;;6.85;0.82;;;12.60;99.90;;;12.65;81.65;62277.44;5074781;28;20544;-67
2021/10/21 02:28:19;;;;;;;5.68;0.40;;;12.60;99.90;;;12.60;82.49;62272.22;5070114;28;20156;-68
2021/10/21 02:30:46;;;;;;;3.30;0.52;;;12.70;99.90;;;12.55;81.60;62266.91;5069975;28;20071;-67
2021/10/21 02:33:14;;;;;;;5.43;0.60;;;12.60;99.90;;;12.51;79.16;62263.41;5070664;28;20106;-68
2021/10/21 02:35:41;;;;;;;6.70;0.65;;;12.70;99.90;;;12.47;79.47;62259.16;5080927;28;20124;-67
2021/10/21 02:38:08;;;;;;;4.63;0.40;;;12.70;99.90;;;12.43;80.28;62254.69;5077633;28;20044;-68
2021/10/21 02:40:35;;;;;;;2.85;0.52;;;12.60;99.90;;;12.38;80.67;62249.63;5074283;28;20055;-68
2021/10/21 02:43:02;;;;;;;1.40;0.38;;;12.60;99.90;;;12.34;79.82;62245.59;5088283;28;20101;-69
2021/10/21 02:45:29;;;;;;;3.92;0.70;;;12.60;99.90;;;12.30;79.57;62241.38;5061876;28;20080;-67
2021/10/21 02:47:56;;;;;;;5.78;0.50;;;12.50;99.90;;;12.25;80.48;62236.59;5082056;28;20505;-68
2021/10/21 02:50:24;;;;;;;4.40;0.40;;;12.50;99.90;;;12.22;79.24;62232.75;5077501;28;20127;-69
2021/10/21 02:52:51;;;;;;;4.25;0.50;;;12.60;99.90;;;12.18;79.21;62229.69;5089944;28;20421;-67
2021/10/21 02:55:18;;;;;;;2.97;0.60;;;12.60;99.90;;;12.14;81.00;62225.72;5077750;28;20179;-67
2021/10/21 02:57:45;;;;;;;4.93;0.60;;;12.50;99.90;;;12.12;78.05;62223.16;5083316;28;20459;-68
2021/10/21 03:00:12;;;;;;;4.68;0.68;;;12.60;99.90;;;12.09;79.32;62220.03;5089591;28;20067;-68
2021/10/21 03:02:39;;;;;;;4.80;0.45;;;12.70;99.90;;;12.07;78.08;62217.75;5083338;28;20174;-69
2021/10/21 03:05:08;;;;;;;3.47;0.40;;;12.70;99.90;;;12.05;77.72;62216.16;5065111;28;20439;-68
2021/10/21 03:07:35;;;;;;;3.60;0.50;;;12.70;99.90;;;12.02;78.52;62213.69;5080236;28;20123;-68
2021/10/21 03:10:03;;;;;;;7.57;0.60;;;12.70;99.90;;;12.00;78.42;62211.81;5072096;28;20097;-69
2021/10/21 03:12:30;;;;;;;4.10;0.68;;;12.60;99.90;;;11.99;77.30;62210.22;5088407;28;20147;-68
2021/10/21 03:15:18;;;;;;;5.50;0.70;;;12.60;99.90;;;11.97;75.35;62208.41;5079908;28;20052;-67
2021/10/21 03:17:45;;;;;;;4.68;0.52;;;12.60;99.90;;;11.95;75.96;62206.34;5068973;28;20090;-68
2021/10/21 03:20:12;;;;;;;6.38;0.63;;;12.60;99.90;;;11.93;75.47;62204.31;5088947;28;20134;-67
2021/10/21 03:22:41;;;;;;;8.07;0.98;;;12.60;99.90;;;11.92;73.45;62203.25;5089804;28;20154;-67
2021/10/21 03:25:10;;;;;;;6.03;0.85;;;12.50;99.90;;;11.90;74.41;62200.75;5083206;28;20090;-68
2021/10/21 03:27:38;;;;;;;10.18;0.95;;;12.50;99.90;;;11.88;73.68;62198.72;5052362;28;20315;-68
2021/10/21 03:30:07;;;;;;;7.95;1.13;;;12.60;99.90;;;11.86;74.17;62196.22;5069401;28;20231;-68
2021/10/21 03:32:34;;;;;;;5.93;1.17;;;12.50;99.90;;;11.84;71.93;62194.88;5069447;28;20072;-67
2021/10/21 03:35:02;;;;;;;11.07;1.20;;;12.50;99.90;;;11.82;74.59;62192.13;5082831;28;20040;-70
2021/10/21 03:37:29;;;;;;;5.47;0.80;;;12.50;99.90;;;11.80;74.02;62189.94;5088903;28;20151;-65
2021/10/21 03:39:56;;;;;;;13.20;0.95;;;12.40;99.90;;;11.77;74.21;62187.47;5083795;28;20128;-66
2021/10/21 03:42:23;;;;;;;6.85;0.70;;;12.50;99.90;;;11.76;73.40;62185.56;5069398;28;20152;-66
2021/10/21 03:44:54;;;;;;;9.18;0.77;;;12.40;99.90;;;11.74;73.69;62183.63;5072492;28;20080;-66
2021/10/21 03:47:21;;;;;;;5.93;0.90;;;12.40;99.90;;;11.72;74.10;62181.88;5068815;28;20087;-67
2021/10/21 03:49:50;;;;;;;9.63;0.82;;;12.40;99.90;;;11.70;73.25;62180.41;5069055;28;20076;-66
2021/10/21 03:52:19;;;;;;;12.10;0.70;;;12.30;99.90;;;11.69;73.37;62178.31;5109222;28;20444;-66
2021/10/21 03:54:48;;;;;;;9.45;1.05;;;12.40;99.90;;;11.67;73.05;62176.34;5089405;28;20095;-66
2021/10/21 03:57:15;;;;;;;10.40;0.90;;;12.40;99.90;;;11.66;72.63;62174.88;5074566;28;20131;-66
2021/10/21 03:59:43;;;;;;;5.88;0.80;;;12.30;99.90;;;11.64;74.60;62172.38;5086886;28;20123;-66
2021/10/21 04:02:11;;;;;;;10.13;1.08;;;12.40;99.90;;;11.63;72.12;62171.53;5088375;28;20052;-66
2021/10/21 04:04:38;;;;;;;13.60;1.15;;;12.30;99.90;;;11.61;72.98;62169.91;5083013;28;20048;-67
2021/10/21 04:07:05;;;;;;;7.20;1.23;;;12.40;99.90;;;11.61;71.62;62169.50;5089198;28;20072;-66
2021/10/21 04:09:32;;;;;;;5.95;0.77;;;12.40;99.90;;;11.60;72.74;62168.41;5088531;28;20052;-67
2021/10/21 04:11:59;;;;;;;6.35;0.70;;;12.40;99.90;;;11.58;73.08;62167.09;5087910;28;20139;-66
2021/10/21 04:14:26;;;;;;;6.60;1.30;;;12.30;99.90;;;11.57;72.96;62166.44;5086116;28;20075;-65
2021/10/21 04:16:56;;;;;;;8.45;1.70;;;12.30;99.90;;;11.57;71.99;62165.63;5086936;28;20040;-66
2021/10/21 04:19:23;;;;;;;9.65;0.77;;;12.40;99.90;;;11.56;72.46;62164.69;5088889;28;20131;-66
2021/10/21 04:21:51;;;;;;;8.00;1.05;;;12.40;99.90;;;11.55;72.57;62163.72;5088451;28;20075;-66
2021/10/21 04:24:18;;;;;;;8.23;1.05;;;12.30;99.90;;;11.53;72.45;62161.91;5068270;28;20136;-65
2021/10/21 04:26:45;;;;;;;12.55;1.45;;;12.20;99.90;;;11.52;72.67;62160.38;5068527;28;20105;-66
2021/10/21 04:29:13;;;;;;;10.90;1.10;;;12.20;99.90;;;11.51;72.41;62159.59;5079359;28;20127;-66
2021/10/21 04:31:39;;;;;;;12.25;1.27;;;12.10;99.90;;;11.50;72.87;62158.25;5092476;28;20082;-66
2021/10/21 04:34:06;;;;;;;12.60;1.40;;;12.10;99.90;;;11.48;73.99;62156.53;5071706;28;20106;-66
2021/10/21 04:36:33;;;;;;;11.07;1.50;;;12.10;99.90;;;11.47;74.01;62154.72;5090400;28;20199;-67
2021/10/21 04:39:00;;;;;;;11.32;1.20;;;12.00;99.90;;;11.46;72.75;62153.66;5091947;28;20097;-66
2021/10/21 04:41:27;;;;;;;16.60;2.53;;;12.00;99.90;;;11.45;73.70;62152.44;5091925;28;20500;-67
2021/10/21 04:43:54;;;;;;;17.52;1.30;;;12.10;99.90;;;11.44;73.41;62151.19;5072776;28;20112;-67
2021/10/21 04:46:21;;;;;;;7.40;0.98;;;12.10;99.90;;;11.43;72.70;62150.47;5075380;28;20048;-65
2021/10/21 04:48:48;;;;;;;14.02;1.38;;;12.20;99.90;;;11.42;74.16;62149.84;5091392;28;20521;-66
2021/10/21 04:51:15;;;;;;;15.32;1.98;;;12.20;99.90;;;11.41;72.50;62149.38;5084808;28;20052;-66
2021/10/21 04:53:42;;;;;;;14.38;2.20;;;12.20;99.90;;;11.40;72.73;62148.72;5091197;28;20468;-67
2021/10/21 04:56:11;;;;;;;9.80;1.17;;;12.20;99.90;;;11.41;70.49;62148.81;5072862;28;20053;-66
2021/10/21 04:58:39;;;;;;;11.70;2.10;;;12.30;99.90;;;11.40;71.05;62148.88;5091391;28;20066;-66
2021/10/21 05:01:05;;;;;;;6.93;1.20;;;12.30;99.90;;;11.40;71.59;62149.03;5090482;28;20052;-66
2021/10/21 05:03:33;;;;;;;7.60;1.15;;;12.20;99.90;;;11.40;71.95;62148.63;5091697;28;20139;-66
2021/10/21 05:06:00;;;;;;;18.33;1.63;;;12.30;99.90;;;11.39;71.38;62148.09;5086774;28;20156;-66
2021/10/21 05:08:27;;;;;;;12.00;1.70;;;12.30;99.90;;;11.39;71.01;62147.72;5073831;28;20086;-67
2021/10/21 05:10:54;;;;;;;12.18;1.50;;;12.20;99.90;;;11.38;71.44;62147.06;5092376;28;20107;-66
2021/10/21 05:13:21;;;;;;;11.23;1.23;;;12.10;99.90;;;11.37;71.55;62146.38;5091429;28;20086;-66
2021/10/21 05:15:48;;;;;;;8.00;0.98;;;12.10;99.90;;;11.37;70.32;62146.00;5084992;28;20056;-66
2021/10/21 05:18:16;;;;;;;8.05;0.90;;;12.20;99.90;;;11.36;70.27;62145.63;5090683;28;20127;-66
2021/10/21 05:20:43;;;;;;;13.43;1.65;;;12.20;99.90;;;11.35;70.53;62145.00;5090984;28;20539;-66
2021/10/21 05:23:10;;;;;;;17.45;1.35;;;12.20;99.90;;;11.34;72.40;62143.38;5091325;28;20052;-67
2021/10/21 05:25:37;;;;;;;7.22;1.52;;;12.20;99.90;;;11.33;71.89;62141.50;5091794;28;20106;-66
2021/10/21 05:28:04;;;;;;;5.97;0.82;;;12.00;99.90;;;11.31;72.13;62139.91;5090667;28;20109;-67
2021/10/21 05:30:31;;;;;;;9.25;1.02;;;12.00;99.90;;;11.28;73.93;62137.44;5092303;28;20071;-66
2021/10/21 05:32:58;;;;;;;4.65;0.90;;;11.80;99.90;;;11.27;72.95;62136.03;5089258;28;20127;-67
2021/10/21 05:35:25;;;;;;;7.93;1.15;;;11.80;99.90;;;11.25;72.06;62134.38;5076462;28;20558;-68
2021/10/21 05:37:52;;;;;;;5.40;1.00;;;11.80;99.90;;;11.24;70.95;62133.00;5074699;28;20135;-67
2021/10/21 05:40:20;;;;;;;5.50;0.80;;;11.90;99.90;;;11.23;71.56;62131.81;5086364;28;20462;-67
2021/10/21 05:42:48;;;;;;;17.95;1.50;;;11.90;99.90;;;11.20;72.99;62128.91;5090419;28;20068;-67
2021/10/21 05:45:15;;;;;;;9.05;0.88;;;11.80;99.90;;;11.17;73.81;62125.88;5091186;28;20076;-67
2021/10/21 05:47:43;;;;;;;6.95;0.80;;;11.50;99.90;;;11.13;74.67;62121.97;5076868;28;20477;-67
2021/10/21 05:50:10;;;;;;;8.82;1.10;;;11.20;99.90;;;11.09;75.33;62118.00;5084858;28;20136;-67
2021/10/21 05:52:38;;;;;;;10.05;0.68;;;11.20;99.90;;;11.05;76.55;62113.19;5090727;28;20076;-67
2021/10/21 05:55:06;;;;;;;2.63;0.57;;;;;;;11.01;76.17;62108.97;5055223;28;20131;-65
2021/10/21 05:57:53;;;;;;;8.43;0.70;;;;;;;10.97;76.99;62104.16;5070933;28;20048;-66
2021/10/21 06:00:23;;;;;;;8.15;0.90;;;;;;;10.93;76.68;62099.97;5085896;28;20146;-65
2021/10/21 06:02:50;;;;;;;8.00;1.00;;;11.10;99.90;;;10.88;78.44;62095.47;5077977;28;20048;-68
2021/10/21 06:05:21;;;;;;;15.07;0.90;;;11.10;99.90;;;10.84;78.02;62090.88;5069013;28;20052;-66
2021/10/21 06:07:50;;;;;;;7.55;0.60;;;11.10;99.90;;;10.77;82.25;62084.63;5091183;28;20094;-65
2021/10/21 06:10:17;;;;;;;2.60;0.30;;;10.90;99.90;;;10.70;82.12;62076.88;5088172;28;20051;-65
2021/10/21 06:12:48;;;;;;;7.10;0.57;;;10.60;99.90;;;10.62;95.29;62069.13;5070538;28;20094;-66
2021/10/21 06:15:17;;;;;;;5.85;0.45;;;10.30;99.90;;;10.54;86.81;62060.34;5085188;28;20039;-66
2021/10/21 06:17:45;;;;;;;3.42;0.45;;;10.10;99.90;;;10.45;86.33;62051.19;5090251;28;20509;-65
2021/10/21 06:20:15;;;;;;;6.90;1.17;;;10.20;99.90;;;10.37;87.10;62043.31;5088275;28;20138;-66
2021/10/21 06:22:43;;;;;;;3.72;0.60;;;10.00;99.90;;;10.30;88.09;62035.44;5084810;28;20128;-65
2021/10/21 06:25:12;;;;;;;3.38;0.57;;;9.90;99.90;;;10.22;90.06;62027.91;5074358;28;20074;-65
2021/10/21 06:27:39;;;;;;;5.78;0.60;;;9.80;99.90;;;10.15;88.23;62020.47;5070142;28;20170;-65
2021/10/21 06:30:07;;;;;;;7.32;1.48;;;9.80;99.90;;;10.07;90.86;62012.59;5052639;28;20159;-65
2021/10/21 06:32:36;;;;;;;6.40;1.00;;;9.70;99.90;;;10.01;88.35;62006.03;5071227;28;20048;-64
2021/10/21 06:35:03;;;;;;;4.57;0.85;;;9.80;99.90;;;9.94;89.92;61998.78;5056887;28;20124;-66
2021/10/21 06:37:31;;;;;;;7.20;0.60;;;9.70;99.90;;;9.88;92.40;61991.72;5075057;28;20124;-66
2021/10/21 06:39:57;;;;;;;6.15;0.75;;;9.70;99.90;;;9.81;92.05;61984.44;5072001;28;20209;-65
2021/10/21 06:42:25;;;;;;;4.30;0.60;;;9.70;99.90;;;9.75;92.30;61978.16;5074278;28;20051;-66
2021/10/21 06:44:52;;;;;;;10.38;0.50;;;9.60;99.90;;;9.69;93.29;61972.63;5061616;28;20072;-65
2021/10/21 06:47:19;;;;;;;3.22;0.70;;;9.70;99.90;;;9.64;93.13;61966.78;5072522;28;20080;-67
2021/10/21 06:49:46;;;;;;;3.05;0.40;;;9.60;99.90;;;9.59;93.94;61961.16;5062963;28;20459;-65
2021/10/21 06:52:13;;;;;;;4.20;0.55;;;9.60;99.90;;;9.54;91.01;61956.84;5104089;28;20454;-66
2021/10/21 06:54:40;;;;;;;8.43;0.50;;;9.60;99.90;;;9.50;92.47;61952.91;5081868;28;20457;-65
2021/10/21 06:57:07;;;;;;;1.13;0.30;;;9.70;99.90;;;9.47;92.42;61949.28;5073448;28;20413;-65
2021/10/21 06:59:34;;;;;;;1.50;0.38;;;9.70;99.90;;;9.41;94.70;61944.47;5089711;28;20108;-65
2021/10/21 07:02:01;;;;;;;6.80;0.40;;;9.70;99.90;;;9.36;97.56;61939.31;5092400;28;20135;-65
2021/10/21 07:04:29;;;;;;;1.40;0.40;;;9.60;99.90;;;9.32;95.85;61934.41;5079388;28;20052;-66
2021/10/21 07:07:06;;;;;;;3.55;0.32;;;9.50;99.90;;;9.26;98.86;61929.16;5072739;28;20056;-66
2021/10/21 07:09:33;;;;;;;3.83;0.30;;;9.50;99.90;;;9.21;100.00;61923.28;5071078;28;20052;-66
2021/10/21 07:12:19;;;;;;;3.67;0.70;;;9.40;99.90;;;9.15;100.00;61917.91;5072316;28;20143;-67
2021/10/21 07:14:46;;;;;;;3.45;0.30;;;9.40;99.90;;;9.10;100.00;61912.44;5078309;28;20436;-65
2021/10/21 07:17:13;;;;;;;4.72;0.47;;;9.30;99.90;;;9.06;100.00;61908.00;5070772;28;20052;-65
2021/10/21 07:19:40;;;;;;;1.88;0.40;;;9.30;99.90;;;9.02;98.98;61903.91;5069605;28;20052;-64
2021/10/21 07:22:07;;;;;;;1.30;0.32;;;9.40;99.90;;;8.98;99.22;61899.84;5082957;28;20048;-65
2021/10/21 07:24:34;;;;;;;5.72;0.38;;;9.40;99.90;;;8.95;97.00;61896.69;5079656;28;20105;-66
2021/10/21 07:27:01;;;;;;;1.05;0.60;;;9.40;99.90;;;8.93;94.82;61894.81;5069467;28;20361;-64
2021/10/21 07:29:28;;;;;;;2.50;0.30;;;9.50;99.90;;;8.91;94.07;61893.22;5069306;28;20423;-64
2021/10/21 07:31:55;;;;;;;1.50;0.40;;;9.50;99.90;;;8.90;93.83;61891.88;5070685;28;20125;-66
2021/10/21 07:34:22;;;;;;;2.60;0.40;;;9.50;99.90;;;8.88;93.57;61890.19;5080289;28;20134;-65
2021/10/21 07:36:49;;;;;;;1.05;0.45;;;9.50;99.90;;;8.88;92.97;61889.38;5075048;28;20731;-65
2021/10/21 07:39:16;;;;;;;1.60;0.35;;;9.60;99.90;;;8.87;93.44;61888.44;5088261;28;20147;-65
2021/10/21 07:41:44;;;;;;;3.70;0.38;;;9.60;99.90;;;8.86;92.51;61887.19;5089638;28;20048;-65
2021/10/21 07:44:11;;;;;;;1.35;0.30;;;9.60;99.90;;;8.85;92.55;61886.38;5088061;28;20136;-65
2021/10/21 07:46:38;;;;;;;2.40;0.40;;;9.60;99.90;;;8.84;93.90;61885.28;5081371;28;20079;-65
2021/10/21 07:49:05;;;;;;;0.60;0.30;;;9.60;99.90;;;8.83;93.32;61884.94;5083382;28;20453;-65
2021/10/21 07:51:32;;;;;;;0.57;0.30;;;9.50;99.90;;;8.82;94.44;61884.25;5089578;28;20472;-66
2021/10/21 07:53:59;;;;;;;3.15;0.20;;;9.60;99.90;;;8.82;93.27;61883.88;5085780;28;20048;-64
2021/10/21 07:56:29;;;;;;;0.30;0.25;;;9.50;99.90;;;8.82;90.79;61883.28;5069075;28;20094;-65
2021/10/21 07:58:56;;;;;;;3.88;0.40;;;9.60;99.90;;;8.81;91.55;61882.31;5069586;28;20090;-66
2021/10/21 08:01:23;;;;;;;0.98;0.30;;;9.60;99.90;;;8.81;90.94;61882.06;5069659;28;20046;-66
2021/10/21 08:03:52;;;;;;;1.65;0.70;;;9.60;99.90;;;8.80;91.76;61881.50;5088803;28;20056;-65
2021/10/21 08:06:19;;;;;;;0.63;0.30;;;9.50;99.90;;;8.80;90.14;61881.59;5093713;28;20071;-65
2021/10/21 08:08:47;;;;;;;1.00;0.40;;;9.60;99.90;;;8.80;92.21;61881.31;5093320;28;20493;-65
2021/10/21 08:11:15;;;;;;;1.25;0.30;;;9.50;99.90;;;8.79;92.61;61880.34;5092552;28;20072;-65
2021/10/21 08:13:42;;;;;;;0.75;0.40;;;9.50;99.90;;;8.78;92.12;61879.53;5092507;28;20048;-64
2021/10/21 08:16:09;;;;;;;0.60;0.30;;;9.50;99.90;;;8.78;87.48;61878.81;5090168;28;20123;-65
2021/10/21 08:18:36;;;;;;;2.92;0.45;;;9.50;99.90;;;8.77;86.59;61877.84;5092933;28;20467;-65
2021/10/21 08:21:03;;;;;;;2.10;0.40;;;9.40;99.90;;;8.76;85.81;61876.88;5091873;28;20089;-66
2021/10/21 08:23:30;;;;;;;3.05;0.52;;;9.40;99.90;;;8.76;83.85;61876.75;5079723;28;20460;-65
2021/10/21 08:25:58;;;;;;;4.68;0.50;;;9.50;99.90;;;8.77;83.77;61877.47;5093044;28;20044;-65
2021/10/21 08:28:25;;;;;;;3.17;0.50;;;9.60;99.90;;;8.78;83.41;61878.81;5093202;28;20135;-65
2021/10/21 08:30:52;;;;;;;7.38;0.60;;;9.80;99.90;;;8.80;83.44;61881.00;5085548;28;20127;-64
2021/10/21 08:33:19;;;;;;;2.92;0.50;;;10.10;99.90;;;8.83;82.44;61883.69;5078579;28;20139;-65
2021/10/21 08:35:46;;;;;;;3.17;0.30;;;10.30;99.90;;;8.85;81.36;61885.28;5082083;28;20127;-65
2021/10/21 08:38:13;;;;;;;4.18;1.10;;;10.60;99.90;;;8.89;80.86;61889.75;5076922;28;20507;-65
2021/10/21 08:40:40;;;;;;;2.65;0.50;;;10.80;99.90;;;8.93;78.26;61893.81;5090815;28;20056;-64
2021/10/21 08:43:08;;;;;;;4.57;0.60;;;10.90;99.90;;;8.96;77.23;61897.06;5080751;28;20123;-65
2021/10/21 08:45:37;;;;;;;4.85;0.60;;;11.00;99.90;;;9.00;77.62;61900.59;5074747;28;20063;-65
2021/10/21 08:48:05;;;;;;;1.33;0.47;;;11.00;99.90;;;9.03;77.52;61904.59;5092093;28;20044;-65
2021/10/21 08:50:34;;;;;;;5.88;0.75;;;11.10;99.90;;;9.06;76.66;61907.84;5090793;28;20219;-66
2021/10/21 08:53:04;;;;;;;3.35;0.40;;;11.20;99.90;;;9.09;77.36;61910.53;5091475;28;20088;-65
2021/10/21 08:55:31;;;;;;;5.00;0.80;;;11.20;99.90;;;9.12;78.36;61913.09;5073332;28;20517;-65
2021/10/21 08:57:59;;;;;;;4.07;0.80;;;11.20;99.90;;;9.15;79.19;61916.34;5085682;28;20082;-65
2021/10/21 09:00:27;;;;;;;2.60;0.60;;;11.20;99.90;;;9.17;78.56;61918.25;5092292;28;20048;-64
2021/10/21 09:03:00;;;;;;;3.03;0.50;;;11.10;99.90;;;9.18;80.24;61919.78;5090689;28;20117;-65
2021/10/21 09:06:25;;;;;;;6.15;0.70;;;10.90;99.90;;;9.19;79.65;61920.56;5086553;28;20051;-65
2021/10/21 09:08:18;;;;;;;5.18;0.60;;;10.80;99.90;;;9.21;78.49;61922.00;5081545;28;20414;-64
2021/10/21 09:11:00;;;;;;;4.43;0.60;;;10.80;99.90;;;9.23;78.54;61925.38;5075171;28;20047;-65
2021/10/21 09:13:30;;;;;;;7.22;0.90;;;10.90;99.90;;;9.26;77.65;61928.00;5090041;28;20402;-64
2021/10/21 09:16:01;;;;;;;7.80;1.00;;;11.00;99.90;;;9.30;77.79;61932.50;5085532;28;20067;-66
2021/10/21 09:18:46;;;;;;;2.42;0.52;;;11.10;99.90;;;9.34;76.05;61936.69;5090753;28;20044;-65
2021/10/21 09:21:37;;;;;;;9.35;1.30;;;11.20;99.90;;;9.37;76.02;61940.09;5090014;28;20150;-65
2021/10/21 09:24:22;;;;;;;10.68;0.90;;;11.50;99.90;;;9.41;75.71;61943.44;5085830;28;20116;-65
2021/10/21 09:27:13;;;;;;;4.35;0.70;;;11.60;99.90;;;9.44;75.80;61947.03;5089427;28;20127;-65
2021/10/21 09:29:45;;;;;;;5.82;0.65;;;11.40;99.90;;;9.46;76.48;61949.09;5089061;28;20048;-66
2021/10/21 09:32:24;;;;;;;4.60;0.80;;;11.30;99.90;;;9.47;79.16;61949.88;5073188;28;20500;-65
2021/10/21 09:34:55;;;;;;;7.32;0.93;;;11.00;99.90;;;9.46;79.67;61949.47;5083255;28;20422;-65
2021/10/21 09:37:30;;;;;;;10.25;1.30;;;10.80;99.90;;;9.47;79.38;61950.16;5071262;28;20075;-65
2021/10/21 09:40:21;;;;;;;11.65;1.27;;;10.70;99.90;;;9.48;78.94;61951.41;5092813;28;20071;-66
2021/10/21 09:43:15;;;;;;;4.38;1.00;;;10.80;99.90;;;9.48;78.48;61951.66;5089913;28;20078;-65
2021/10/21 09:45:45;;;;;;;10.15;1.33;;;10.90;99.90;;;9.48;78.80;61951.66;5088570;28;20058;-65
2021/10/21 09:48:19;;;;;;;5.82;0.93;;;10.90;99.90;;;9.49;79.29;61952.50;5079880;28;20581;-65
2021/10/21 09:50:47;;;;;;;4.25;0.90;;;10.90;99.90;;;9.50;78.73;61953.16;5084550;28;20123;-65
2021/10/21 09:53:31;;;;;;;8.55;0.95;;;10.90;99.90;;;9.51;78.87;61954.13;5088384;28;20505;-66
2021/10/21 09:56:08;;;;;;;7.22;1.00;;;10.90;99.90;;;9.52;78.89;61954.84;5056991;28;20047;-66
2021/10/21 09:58:42;;;;;;;4.28;0.50;;;10.90;99.90;;;9.53;78.13;61955.66;5078452;28;20076;-66
2021/10/21 10:01:14;;;;;;;7.82;0.95;;;10.90;99.90;;;9.55;79.15;61958.72;5079186;28;20520;-66
2021/10/21 10:03:43;;;;;;;4.25;0.85;;;11.10;99.90;;;9.58;78.43;61961.19;5059669;28;20414;-66
2021/10/21 10:06:12;;;;;;;9.38;0.80;;;11.30;99.90;;;9.60;77.77;61963.53;5083250;28;20135;-65
2021/10/21 10:08:39;;;;;;;5.07;0.80;;;11.30;99.90;;;9.61;77.95;61965.28;5061474;28;20072;-65
2021/10/21 10:11:19;;;;;;;7.00;0.93;;;11.30;99.90;;;9.64;76.16;61968.19;5090492;28;20048;-65
2021/10/21 10:13:51;;;;;;;8.68;1.52;;;11.30;99.90;;;9.66;75.98;61970.19;5084342;28;20063;-65
2021/10/21 10:16:18;;;;;;;10.77;1.38;;;11.30;99.90;;;9.68;75.87;61971.53;5088994;28;20135;-66
2021/10/21 10:18:47;;;;;;;7.43;1.10;;;11.40;99.90;;;9.70;75.93;61973.66;5085041;28;20134;-66
2021/10/21 10:21:25;;;;;;;7.35;0.85;;;11.60;99.90;;;9.73;75.29;61977.31;5087541;28;20040;-66
2021/10/21 10:23:57;;;;;;;10.38;1.30;;;11.60;99.90;;;9.77;74.10;61980.56;5077569;28;20104;-66
2021/10/21 10:26:56;;;;;;;3.20;0.63;;;11.70;99.90;;;9.80;73.75;61983.88;5073189;28;20678;-66
2021/10/21 10:29:31;;;;;;;12.68;1.05;;;11.90;99.90;;;9.85;72.93;61988.22;5073270;28;20143;-65
2021/10/21 10:32:06;;;;;;;13.60;1.30;;;12.00;99.90;;;9.90;73.01;61993.91;5083286;28;20057;-64